Time;durP1;ratioP1;P1;durP2;ratioP2;P2;SDS_P1;SDS_P2;PMS_P1;PMS_P2;Temp;Humidity;BMP_temperature;BMP_pressure;BME280_temperature;BME280_humidity;BME280_pressure;Samples;Min_cycle;Max_cycle;Signal;HPM_P1;HPM_P2
2021/07/01 00:00:52;;;;;;;25.23;13.15;;;;;;;;;;6215477;23;20005;-48
2021/07/01 00:03:18;;;;;;;18.55;12.18;;;;;;;;;;6214965;23;20000;-48
2021/07/01 00:05:44;;;;;;;20.58;11.65;;;;;;;;;;6215332;23;20012;-49
2021/07/01 00:08:10;;;;;;;32.47;14.15;;;;;;;;;;6215080;23;20001;-48
2021/07/01 00:10:37;;;;;;;20.95;12.02;;;;;;;;;;6215190;23;20293;-49
2021/07/01 00:13:03;;;;;;;34.30;16.05;;;;;;;;;;6215519;23;20008;-48
2021/07/01 00:15:31;;;;;;;26.55;13.88;;;;;;;;;;6215303;23;20422;-48
2021/07/01 00:17:57;;;;;;;25.10;12.63;;;;;;;;;;6214783;23;20008;-49
2021/07/01 00:20:24;;;;;;;24.55;13.82;;;;;;;;;;6215141;23;20500;-50
2021/07/01 00:22:51;;;;;;;23.38;13.18;;;;;;;;;;6215163;23;20100;-48
2021/07/01 00:25:17;;;;;;;23.20;12.43;;;;;;;;;;6215224;23;20508;-48
2021/07/01 00:27:43;;;;;;;23.23;12.55;;;;;;;;;;6214325;23;20009;-48
2021/07/01 00:30:11;;;;;;;28.02;13.75;;;;;;;;;;6215219;23;20463;-49
2021/07/01 00:32:37;;;;;;;25.08;14.02;;;;;;;;;;6214783;23;20278;-50
2021/07/01 00:35:03;;;;;;;25.42;13.10;;;;;;;;;;6215089;23;20055;-49
2021/07/01 00:37:32;;;;;;;27.48;13.93;;;;;;;;;;6214971;23;20071;-49
2021/07/01 00:39:58;;;;;;;24.98;13.98;;;;;;;;;;6215161;23;19997;-49
2021/07/01 00:42:24;;;;;;;23.77;13.13;;;;;;;;;;6214929;23;20032;-49
2021/07/01 00:44:50;;;;;;;34.75;15.57;;;;;;;;;;6214837;23;20004;-49
2021/07/01 00:47:16;;;;;;;31.77;14.95;;;;;;;;;;6214563;23;20028;-48
2021/07/01 00:49:43;;;;;;;25.70;15.00;;;;;;;;;;6213930;23;20013;-49
2021/07/01 00:52:09;;;;;;;28.13;14.32;;;;;;;;;;6215363;23;20185;-48
2021/07/01 00:54:35;;;;;;;34.40;16.10;;;;;;;;;;6214792;23;20011;-48
2021/07/01 00:57:02;;;;;;;26.27;14.65;;;;;;;;;;6214715;23;20027;-48
2021/07/01 00:59:28;;;;;;;30.38;15.38;;;;;;;;;;6214019;23;20080;-49
2021/07/01 01:01:54;;;;;;;24.63;13.45;;;;;;;;;;6215783;23;20008;-53
2021/07/01 01:04:20;;;;;;;31.38;13.90;;;;;;;;;;6214571;23;20007;-50
2021/07/01 01:06:46;;;;;;;28.75;13.63;;;;;;;;;;6214553;23;20005;-51
2021/07/01 01:09:12;;;;;;;26.13;14.23;;;;;;;;;;6214375;23;20317;-53
2021/07/01 01:11:38;;;;;;;24.33;13.55;;;;;;;;;;6214518;23;20005;-50
2021/07/01 01:14:04;;;;;;;26.48;13.40;;;;;;;;;;6214825;23;20005;-51
2021/07/01 01:16:30;;;;;;;22.35;12.52;;;;;;;;;;6215090;23;19996;-51
2021/07/01 01:18:56;;;;;;;23.95;13.32;;;;;;;;;;6214049;23;20105;-51
2021/07/01 01:21:27;;;;;;;22.70;12.45;;;;;;;;;;6214816;23;20012;-51
2021/07/01 01:23:55;;;;;;;23.70;13.30;;;;;;;;;;6214695;23;20062;-51
2021/07/01 01:26:21;;;;;;;22.60;11.90;;;;;;;;;;6214786;23;20013;-52
2021/07/01 01:28:47;;;;;;;24.17;12.80;;;;;;;;;;6213725;23;20008;-51
2021/07/01 01:31:13;;;;;;;17.77;11.32;;;;;;;;;;6214533;23;20003;-51
2021/07/01 01:33:39;;;;;;;24.77;12.57;;;;;;;;;;6214290;23;20000;-52
2021/07/01 01:36:05;;;;;;;22.30;12.45;;;;;;;;;;6214334;23;20035;-53
2021/07/01 01:38:31;;;;;;;24.33;12.07;;;;;;;;;;6214521;23;19997;-50
2021/07/01 01:40:57;;;;;;;23.48;11.27;;;;;;;;;;6214382;23;20004;-51
2021/07/01 01:43:23;;;;;;;21.95;10.93;;;;;;;;;;6214360;23;20481;-52
2021/07/01 01:45:50;;;;;;;23.83;12.40;;;;;;;;;;6214641;23;20005;-51
2021/07/01 01:48:16;;;;;;;18.27;10.68;;;;;;;;;;6213418;23;20017;-52
2021/07/01 01:50:43;;;;;;;20.23;11.38;;;;;;;;;;6214428;23;20004;-50
2021/07/01 01:53:10;;;;;;;21.48;11.57;;;;;;;;;;6214270;23;20001;-52
2021/07/01 01:55:36;;;;;;;26.58;12.15;;;;;;;;;;6214595;23;19997;-50
2021/07/01 01:58:03;;;;;;;27.02;11.52;;;;;;;;;;6212120;23;20050;-54
2021/07/01 02:00:30;;;;;;;18.52;10.65;;;;;;;;;;6214103;23;20011;-52
2021/07/01 02:02:57;;;;;;;20.60;11.18;;;;;;;;;;6214355;23;20012;-52
2021/07/01 02:05:23;;;;;;;24.27;11.23;;;;;;;;;;6214431;23;20008;-53
2021/07/01 02:07:49;;;;;;;19.00;10.25;;;;;;;;;;6213757;23;20388;-50
2021/07/01 02:10:16;;;;;;;26.48;10.82;;;;;;;;;;6214210;23;20055;-51
2021/07/01 02:12:42;;;;;;;20.08;10.75;;;;;;;;;;6214754;23;19996;-53
2021/07/01 02:15:09;;;;;;;16.88;10.05;;;;;;;;;;6187627;23;19996;-53
2021/07/01 02:17:36;;;;;;;22.30;10.88;;;;;;;;;;6186858;23;20097;-53
2021/07/01 02:20:06;;;;;;;19.63;10.50;;;;;;;;;;6214475;23;20027;-50
2021/07/01 02:22:32;;;;;;;19.52;10.60;;;;;;;;;;6214451;23;20076;-50
2021/07/01 02:24:58;;;;;;;20.10;10.80;;;;;;;;;;6214277;23;19997;-52
2021/07/01 02:27:24;;;;;;;19.20;11.13;;;;;;;;;;6214400;23;20099;-51
2021/07/01 02:29:50;;;;;;;16.67;9.95;;;;;;;;;;6213637;23;20026;-51
2021/07/01 02:32:16;;;;;;;20.17;9.73;;;;;;;;;;6214479;23;19997;-50
2021/07/01 02:34:43;;;;;;;18.38;8.95;;;;;;;;;;6214323;23;19997;-54
2021/07/01 02:37:09;;;;;;;22.30;8.07;;;;;;;;;;6214167;23;20024;-51
2021/07/01 02:39:35;;;;;;;13.18;7.13;;;;;;;;;;6213587;23;20059;-52
2021/07/01 02:42:01;;;;;;;11.27;6.45;;;;;;;;;;6214335;23;20070;-51
2021/07/01 02:44:27;;;;;;;10.38;5.85;;;;;;;;;;6214193;23;20453;-53
2021/07/01 02:46:54;;;;;;;16.52;5.53;;;;;;;;;;6214470;23;20047;-51
2021/07/01 02:49:20;;;;;;;9.73;5.95;;;;;;;;;;6213017;23;20013;-51
2021/07/01 02:51:45;;;;;;;7.07;4.60;;;;;;;;;;6214138;23;20055;-52
2021/07/01 02:54:11;;;;;;;8.20;4.93;;;;;;;;;;6213695;23;20008;-50
2021/07/01 02:56:40;;;;;;;7.63;3.90;;;;;;;;;;6213794;23;20001;-53
2021/07/01 02:59:10;;;;;;;10.20;4.45;;;;;;;;;;6214075;23;20357;-51
2021/07/01 03:01:36;;;;;;;4.32;2.95;;;;;;;;;;6214405;23;20499;-50
2021/07/01 03:04:02;;;;;;;8.77;3.10;;;;;;;;;;6213655;23;20009;-50
2021/07/01 03:06:29;;;;;;;6.15;3.15;;;;;;;;;;6213944;23;20005;-52
2021/07/01 03:08:57;;;;;;;4.53;2.65;;;;;;;;;;6213434;23;20013;-51
2021/07/01 03:11:23;;;;;;;8.35;3.22;;;;;;;;;;6215808;23;20004;-52
2021/07/01 03:13:49;;;;;;;6.32;3.17;;;;;;;;;;6215670;23;19996;-51
2021/07/01 03:16:19;;;;;;;5.28;2.95;;;;;;;;;;6216106;23;20287;-53
2021/07/01 03:18:44;;;;;;;5.72;2.80;;;;;;;;;;6214725;23;20004;-51
2021/07/01 03:21:10;;;;;;;5.20;3.20;;;;;;;;;;6215565;23;20012;-52
2021/07/01 03:23:36;;;;;;;6.57;3.63;;;;;;;;;;6215585;23;20024;-52
2021/07/01 03:26:03;;;;;;;6.03;3.15;;;;;;;;;;6215720;23;20402;-51
2021/07/01 03:28:29;;;;;;;8.65;2.88;;;;;;;;;;6215316;23;20005;-55
2021/07/01 03:30:55;;;;;;;5.30;2.88;;;;;;;;;;6215596;23;20416;-51
2021/07/01 03:33:21;;;;;;;7.80;3.28;;;;;;;;;;6215697;23;20051;-52
2021/07/01 03:35:47;;;;;;;10.10;3.70;;;;;;;;;;6215569;23;20079;-51
2021/07/01 03:38:13;;;;;;;6.97;2.75;;;;;;;;;;6215141;23;20032;-52
2021/07/01 03:40:39;;;;;;;5.57;2.75;;;;;;;;;;6215836;23;20012;-51
2021/07/01 03:43:05;;;;;;;8.15;2.92;;;;;;;;;;6215725;23;20005;-52
2021/07/01 03:45:31;;;;;;;6.10;2.65;;;;;;;;;;6215584;23;20005;-52
2021/07/01 03:47:57;;;;;;;5.28;2.25;;;;;;;;;;6214483;23;20079;-51
2021/07/01 03:50:23;;;;;;;3.50;1.90;;;;;;;;;;6215610;23;20024;-51
2021/07/01 03:52:49;;;;;;;3.70;1.90;;;;;;;;;;6215815;23;20324;-51
2021/07/01 03:55:15;;;;;;;3.17;2.00;;;;;;;;;;6215765;23;20008;-51
2021/07/01 03:57:41;;;;;;;3.45;2.10;;;;;;;;;;6215333;23;20436;-51
2021/07/01 04:00:08;;;;;;;2.95;1.60;;;;;;;;;;6214765;23;19996;-53
2021/07/01 04:02:34;;;;;;;3.83;1.77;;;;;;;;;;6215282;23;20460;-51
2021/07/01 04:05:00;;;;;;;6.85;2.53;;;;;;;;;;6214868;23;19996;-53
2021/07/01 04:07:26;;;;;;;2.65;1.80;;;;;;;;;;6215429;23;20004;-55
2021/07/01 04:09:52;;;;;;;2.90;1.58;;;;;;;;;;6215103;23;20001;-51
2021/07/01 04:12:18;;;;;;;2.53;1.50;;;;;;;;;;6215205;23;20333;-50
2021/07/01 04:14:44;;;;;;;6.15;1.73;;;;;;;;;;6215529;23;20055;-51
2021/07/01 04:17:10;;;;;;;2.53;1.55;;;;;;;;;;6215118;23;20410;-53
2021/07/01 04:19:36;;;;;;;4.07;1.88;;;;;;;;;;6214526;23;20001;-51
2021/07/01 04:22:03;;;;;;;2.55;1.55;;;;;;;;;;6215183;23;20004;-51
2021/07/01 04:24:29;;;;;;;5.18;1.70;;;;;;;;;;6215104;23;20004;-51
2021/07/01 04:26:55;;;;;;;1.80;1.50;;;;;;;;;;6215151;23;20008;-51
2021/07/01 04:29:21;;;;;;;2.00;1.40;;;;;;;;;;6214855;23;20361;-51
2021/07/01 04:31:47;;;;;;;4.88;1.83;;;;;;;;;;6215134;23;20329;-53
2021/07/01 04:34:13;;;;;;;2.47;1.88;;;;;;;;;;6214526;23;20409;-51
2021/07/01 04:36:39;;;;;;;4.50;1.85;;;;;;;;;;6215158;23;20003;-51
2021/07/01 04:39:05;;;;;;;2.15;1.42;;;;;;;;;;6214467;23;20421;-51
2021/07/01 04:41:31;;;;;;;2.38;1.20;;;;;;;;;;6214996;23;20100;-54
2021/07/01 04:43:57;;;;;;;1.35;0.98;;;;;;;;;;6214879;23;20001;-51
2021/07/01 04:46:23;;;;;;;4.63;1.30;;;;;;;;;;6214639;23;20394;-51
2021/07/01 04:48:51;;;;;;;5.20;1.00;;;;;;;;;;6213576;23;20020;-51
2021/07/01 04:51:17;;;;;;;2.10;1.20;;;;;;;;;;6215274;23;20000;-51
2021/07/01 04:53:43;;;;;;;2.55;1.30;;;;;;;;;;6215025;23;20008;-51
2021/07/01 04:56:09;;;;;;;5.15;1.30;;;;;;;;;;6215186;23;20024;-50
2021/07/01 04:58:35;;;;;;;3.38;1.20;;;;;;;;;;6214203;23;19997;-51
2021/07/01 05:01:01;;;;;;;5.10;1.80;;;;;;;;;;6214745;23;20004;-54
2021/07/01 05:03:27;;;;;;;3.20;1.52;;;;;;;;;;6214713;23;20310;-51
2021/07/01 05:05:56;;;;;;;4.03;1.50;;;;;;;;;;6215122;23;20004;-51
2021/07/01 05:08:22;;;;;;;2.05;1.30;;;;;;;;;;6214134;23;20059;-53
2021/07/01 05:10:48;;;;;;;2.63;1.50;;;;;;;;;;6214377;23;20047;-52
2021/07/01 05:13:14;;;;;;;6.28;1.70;;;;;;;;;;6214867;23;20004;-51
2021/07/01 05:15:40;;;;;;;3.40;1.50;;;;;;;;;;6214394;23;19997;-51
2021/07/01 05:18:06;;;;;;;4.32;1.33;;;;;;;;;;6214287;23;20004;-51
2021/07/01 05:20:33;;;;;;;2.88;1.40;;;;;;;;;;6214713;23;20027;-53
2021/07/01 05:22:58;;;;;;;2.08;1.42;;;;;;;;;;6214628;23;20004;-54
2021/07/01 05:25:24;;;;;;;6.03;1.98;;;;;;;;;;6214550;23;20012;-51
2021/07/01 05:27:51;;;;;;;3.58;1.83;;;;;;;;;;6214370;23;20007;-51
2021/07/01 05:30:17;;;;;;;2.80;1.65;;;;;;;;;;6214305;23;20000;-51
2021/07/01 05:32:43;;;;;;;2.95;1.70;;;;;;;;;;6214773;23;20076;-55
2021/07/01 05:35:09;;;;;;;4.30;1.67;;;;;;;;;;6214016;23;20001;-51
2021/07/01 05:37:35;;;;;;;2.45;1.38;;;;;;;;;;6214239;23;20015;-54
2021/07/01 05:40:01;;;;;;;5.95;1.45;;;;;;;;;;6214853;23;20376;-53
2021/07/01 05:42:27;;;;;;;3.28;1.70;;;;;;;;;;6214855;23;20070;-50
2021/07/01 05:44:53;;;;;;;2.35;1.35;;;;;;;;;;6213734;23;20380;-51
2021/07/01 05:47:19;;;;;;;5.47;1.77;;;;;;;;;;6187540;23;20054;-51
2021/07/01 05:49:46;;;;;;;3.83;1.73;;;;;;;;;;6213514;23;20012;-51
2021/07/01 05:52:17;;;;;;;3.15;1.88;;;;;;;;;;6214912;23;20457;-52
2021/07/01 05:54:53;;;;;;;4.18;1.73;;;;;;;;;;6214698;23;20008;-52
2021/07/01 05:57:19;;;;;;;3.40;2.10;;;;;;;;;;6213678;23;19997;-53
2021/07/01 05:59:45;;;;;;;2.63;2.03;;;;;;;;;;6213029;23;20100;-50
2021/07/01 06:02:11;;;;;;;4.70;1.95;;;;;;;;;;6214557;23;20001;-51
2021/07/01 06:04:38;;;;;;;3.30;1.80;;;;;;;;;;6214257;23;20056;-50
2021/07/01 06:07:05;;;;;;;3.00;1.83;;;;;;;;;;6213975;23;20084;-52
2021/07/01 06:09:31;;;;;;;4.15;1.98;;;;;;;;;;6213744;23;20328;-51
2021/07/01 06:12:00;;;;;;;3.67;2.10;;;;;;;;;;6214148;23;20001;-51
2021/07/01 06:14:27;;;;;;;3.10;1.70;;;;;;;;;;6213938;23;20028;-50
2021/07/01 06:16:55;;;;;;;4.55;2.22;;;;;;;;;;6214306;23;20087;-50
2021/07/01 06:19:22;;;;;;;3.65;1.90;;;;;;;;;;6213231;23;20000;-50
2021/07/01 06:21:52;;;;;;;5.03;2.00;;;;;;;;;;6214350;23;20005;-51
2021/07/01 06:24:18;;;;;;;3.50;1.88;;;;;;;;;;6213405;23;20004;-53
2021/07/01 06:26:46;;;;;;;3.40;2.08;;;;;;;;;;6213749;23;20238;-53
2021/07/01 06:29:13;;;;;;;3.45;2.15;;;;;;;;;;6214268;23;20711;-51
2021/07/01 06:31:39;;;;;;;3.53;1.92;;;;;;;;;;6214157;23;20005;-53
2021/07/01 06:34:05;;;;;;;2.88;2.03;;;;;;;;;;6213951;23;20000;-51
2021/07/01 06:36:33;;;;;;;3.22;1.85;;;;;;;;;;6214716;23;20008;-51
2021/07/01 06:39:01;;;;;;;2.50;1.75;;;;;;;;;;6213632;23;20130;-51
2021/07/01 06:41:28;;;;;;;2.92;1.75;;;;;;;;;;6214406;23;20039;-50
2021/07/01 06:43:54;;;;;;;2.88;1.90;;;;;;;;;;6214522;23;20372;-50
2021/07/01 06:46:21;;;;;;;3.25;2.00;;;;;;;;;;6215835;23;20009;-52
2021/07/01 06:48:47;;;;;;;4.97;1.90;;;;;;;;;;6215482;23;20408;-51
2021/07/01 06:51:13;;;;;;;3.45;1.80;;;;;;;;;;6215606;23;20027;-53
2021/07/01 06:53:40;;;;;;;2.42;1.88;;;;;;;;;;6215783;23;20007;-50
2021/07/01 06:56:06;;;;;;;3.17;1.70;;;;;;;;;;6214946;23;20001;-51
2021/07/01 06:58:32;;;;;;;2.50;1.60;;;;;;;;;;6215471;23;20000;-51
2021/07/01 07:00:59;;;;;;;2.58;1.50;;;;;;;;;;6216068;23;20035;-51
2021/07/01 07:03:25;;;;;;;2.70;1.60;;;;;;;;;;6215814;23;20005;-52
2021/07/01 07:05:52;;;;;;;2.67;1.50;;;;;;;;;;6216009;23;20031;-51
2021/07/01 07:08:19;;;;;;;2.13;1.58;;;;;;;;;;6214695;23;20016;-51
2021/07/01 07:10:45;;;;;;;2.83;1.63;;;;;;;;;;6213740;23;20028;-51
2021/07/01 07:13:12;;;;;;;3.25;1.70;;;;;;;;;;6214854;23;19996;-54
2021/07/01 07:15:39;;;;;;;4.22;1.77;;;;;;;;;;6213394;23;20507;-54
2021/07/01 07:18:19;;;;;;;1.80;1.33;;;;;;;;;;6213140;23;20970;-53
2021/07/01 07:20:46;;;;;;;2.08;1.40;;;;;;;;;;6213742;23;20028;-50
2021/07/01 07:23:17;;;;;;;3.10;1.70;;;;;;;;;;6214770;23;20004;-51
2021/07/01 07:25:44;;;;;;;8.25;1.70;;;;;;;;;;6186402;23;20032;-51
2021/07/01 07:28:11;;;;;;;3.17;1.50;;;;;;;;;;6212687;23;20032;-50
2021/07/01 07:30:38;;;;;;;1.85;1.38;;;;;;;;;;6213187;23;20023;-51
2021/07/01 07:33:06;;;;;;;2.17;1.50;;;;;;;;;;6212870;23;20079;-51
2021/07/01 07:35:33;;;;;;;2.17;1.42;;;;;;;;;;6215265;23;20001;-53
2021/07/01 07:37:59;;;;;;;1.90;1.55;;;;;;;;;;6213673;23;20079;-51
2021/07/01 07:40:26;;;;;;;1.75;1.27;;;;;;;;;;6213298;23;20019;-51
2021/07/01 07:42:52;;;;;;;1.60;1.30;;;;;;;;;;6213240;23;20127;-53
2021/07/01 07:45:18;;;;;;;1.40;1.08;;;;;;;;;;6214141;23;20029;-52
2021/07/01 07:47:44;;;;;;;2.95;1.20;;;;;;;;;;6214751;23;20005;-52
2021/07/01 07:50:11;;;;;;;1.52;1.15;;;;;;;;;;6214383;23;20337;-48
2021/07/01 07:52:44;;;;;;;4.03;1.05;;;;;;;;;;6215234;23;20008;-48
2021/07/01 07:55:10;;;;;;;1.15;1.05;;;;;;;;;;6215805;23;20004;-48
2021/07/01 07:57:38;;;;;;;2.03;1.30;;;;;;;;;;6213866;23;20001;-48
2021/07/01 08:00:05;;;;;;;3.05;1.10;;;;;;;;;;6214053;23;20535;-49
2021/07/01 08:02:51;;;;;;;0.95;0.75;;;;;;;;;;6215437;23;20050;-48
2021/07/01 08:05:25;;;;;;;1.67;0.90;;;;;;;;;;6215431;23;20000;-49
2021/07/01 08:07:51;;;;;;;1.50;1.00;;;;;;;;;;6214819;23;20001;-49
2021/07/01 08:10:18;;;;;;;1.27;0.85;;;;;;;;;;6215304;23;19993;-49
2021/07/01 08:12:48;;;;;;;1.90;1.10;;;;;;;;;;6215238;23;20001;-48
2021/07/01 08:15:15;;;;;;;1.00;0.90;;;;;;;;;;6215374;23;20358;-49
2021/07/01 08:17:42;;;;;;;2.00;1.00;;;;;;;;;;6214634;23;20047;-48
2021/07/01 08:20:09;;;;;;;1.63;1.02;;;;;;;;;;6214618;23;19996;-49
2021/07/01 08:22:35;;;;;;;1.73;1.25;;;;;;;;;;6214555;23;20354;-49
2021/07/01 08:25:01;;;;;;;1.15;1.00;;;;;;;;;;6215210;23;20493;-48
2021/07/01 08:27:27;;;;;;;0.65;0.60;;;;;;;;;;6214964;23;20032;-49
2021/07/01 08:29:53;;;;;;;1.60;1.00;;;;;;;;;;6214707;23;20001;-49
2021/07/01 08:32:20;;;;;;;1.52;1.20;;;;;;;;;;6215128;23;20079;-48
2021/07/01 08:34:46;;;;;;;2.08;1.30;;;;;;;;;;6215124;23;20433;-49
2021/07/01 08:37:12;;;;;;;1.70;1.33;;;;;;;;;;6214951;23;20271;-48
2021/07/01 08:39:39;;;;;;;1.90;1.50;;;;;;;;;;6214771;23;20487;-48
2021/07/01 08:42:05;;;;;;;1.60;1.50;;;;;;;;;;6215118;23;20005;-48
2021/07/01 08:44:51;;;;;;;2.65;1.70;;;;;;;;;;6215056;23;20004;-48
2021/07/01 08:47:19;;;;;;;2.00;1.55;;;;;;;;;;6215073;23;20055;-49
2021/07/01 08:49:55;;;;;;;2.83;1.85;;;;;;;;;;6214218;23;20063;-49
2021/07/01 08:52:23;;;;;;;2.67;1.63;;;;;;;;;;6214319;23;20005;-48
2021/07/01 08:54:55;;;;;;;2.13;1.40;;;;;;;;;;6214735;23;20033;-48
2021/07/01 08:57:25;;;;;;;3.67;1.25;;;;;;;;;;6214799;23;20004;-48
2021/07/01 08:59:57;;;;;;;3.63;1.77;;;;;;;;;;6214352;23;20001;-49
2021/07/01 09:02:23;;;;;;;2.40;1.88;;;;;;;;;;6214672;23;20448;-50
2021/07/01 09:04:50;;;;;;;2.67;1.80;;;;;;;;;;6213566;23;20001;-49
2021/07/01 09:07:21;;;;;;;2.08;1.83;;;;;;;;;;6213411;23;20020;-49
2021/07/01 09:09:52;;;;;;;2.88;2.08;;;;;;;;;;6213405;23;20008;-48
2021/07/01 09:12:21;;;;;;;2.20;1.88;;;;;;;;;;6214698;23;20008;-48
2021/07/01 09:14:50;;;;;;;2.85;1.90;;;;;;;;;;6213651;23;20099;-50
2021/07/01 09:17:17;;;;;;;4.13;2.00;;;;;;;;;;6214224;23;20087;-50
2021/07/01 09:19:44;;;;;;;3.95;2.35;;;;;;;;;;6213695;23;20079;-48
2021/07/01 09:22:13;;;;;;;3.17;2.33;;;;;;;;;;6214014;23;20079;-50
2021/07/01 09:24:39;;;;;;;4.90;2.50;;;;;;;;;;6214457;23;20004;-49
2021/07/01 09:27:09;;;;;;;5.65;2.63;;;;;;;;;;6214199;23;20427;-48
2021/07/01 09:29:37;;;;;;;2.70;2.50;;;;;;;;;;6214003;23;20008;-49
2021/07/01 09:32:04;;;;;;;3.50;2.72;;;;;;;;;;6214212;23;20460;-48
2021/07/01 09:34:33;;;;;;;3.75;2.97;;;;;;;;;;6214677;23;20072;-49
2021/07/01 09:36:59;;;;;;;3.05;2.75;;;;;;;;;;6188752;23;20020;-48
2021/07/01 09:39:26;;;;;;;3.67;3.00;;;;;;;;;;6212992;23;20004;-49
2021/07/01 09:41:53;;;;;;;3.38;3.08;;;;;;;;;;6214129;23;20606;-48
2021/07/01 09:44:19;;;;;;;3.55;2.75;;;;;;;;;;6214273;23;20001;-49
2021/07/01 09:46:47;;;;;;;3.35;3.00;;;;;;;;;;6213660;23;20051;-49
2021/07/01 09:49:17;;;;;;;4.55;3.67;;;;;;;;;;6213518;23;20025;-48
2021/07/01 09:51:43;;;;;;;4.60;3.28;;;;;;;;;;6213376;23;20011;-48
2021/07/01 09:54:10;;;;;;;8.40;3.65;;;;;;;;;;6212875;23;20008;-48
2021/07/01 09:56:41;;;;;;;4.53;3.53;;;;;;;;;;6213439;23;20317;-50
2021/07/01 09:59:14;;;;;;;4.72;3.72;;;;;;;;;;6212576;23;20108;-49
2021/07/01 10:01:41;;;;;;;7.93;3.28;;;;;;;;;;6212556;23;20811;-48
2021/07/01 10:04:08;;;;;;;4.30;3.88;;;;;;;;;;6213831;23;20009;-49
2021/07/01 10:06:34;;;;;;;4.65;3.55;;;;;;;;;;6213383;23;20400;-49
2021/07/01 10:09:00;;;;;;;5.70;4.20;;;;;;;;;;6213465;23;20043;-49
2021/07/01 10:11:34;;;;;;;4.75;4.05;;;;;;;;;;6212968;23;20004;-49
2021/07/01 10:14:00;;;;;;;;;;;;;;;;;;6214283;23;20019;-49
2021/07/01 10:16:29;;;;;;;5.38;4.30;;;;;;;;;;6213739;23;20313;-48
2021/07/01 10:18:56;;;;;;;4.70;4.22;;;;;;;;;;6213596;23;20077;-49
2021/07/01 10:21:22;;;;;;;5.25;4.00;;;;;;;;;;6214745;23;20005;-49
2021/07/01 10:23:51;;;;;;;9.85;4.93;;;;;;;;;;6215415;23;20088;-50
2021/07/01 10:26:21;;;;;;;5.72;4.70;;;;;;;;;;6216368;23;20058;-49
2021/07/01 10:28:57;;;;;;;6.60;4.40;;;;;;;;;;6215710;23;20000;-48
2021/07/01 10:31:23;;;;;;;5.10;4.38;;;;;;;;;;6215922;23;20392;-49
2021/07/01 10:33:49;;;;;;;6.95;4.43;;;;;;;;;;6188668;23;20095;-49
2021/07/01 10:36:16;;;;;;;6.65;4.68;;;;;;;;;;6215124;23;20044;-48
2021/07/01 10:38:43;;;;;;;6.38;4.95;;;;;;;;;;6215867;23;20104;-48
2021/07/01 10:41:09;;;;;;;6.28;4.50;;;;;;;;;;6216228;23;20009;-49
2021/07/01 10:43:42;;;;;;;6.38;4.70;;;;;;;;;;6214700;23;20004;-49
2021/07/01 10:46:08;;;;;;;5.38;4.50;;;;;;;;;;6215420;23;20350;-49
2021/07/01 10:48:34;;;;;;;7.60;5.07;;;;;;;;;;6215010;23;20022;-50
2021/07/01 10:51:07;;;;;;;8.65;5.55;;;;;;;;;;6215174;23;20092;-50
2021/07/01 10:53:41;;;;;;;10.43;5.35;;;;;;;;;;6187604;23;20009;-48
2021/07/01 10:56:07;;;;;;;9.43;5.75;;;;;;;;;;6215417;23;20542;-49
2021/07/01 10:58:34;;;;;;;9.63;5.53;;;;;;;;;;6214377;23;20413;-49
2021/07/01 11:01:01;;;;;;;9.52;5.70;;;;;;;;;;6215214;23;20004;-49
2021/07/01 11:03:28;;;;;;;8.00;6.20;;;;;;;;;;6214848;23;20329;-48
2021/07/01 11:05:58;;;;;;;9.18;6.22;;;;;;;;;;6214104;23;20019;-48
2021/07/01 11:08:34;;;;;;;7.43;5.57;;;;;;;;;;6215274;23;20005;-49
2021/07/01 11:11:01;;;;;;;8.38;6.70;;;;;;;;;;6214863;23;20012;-51
2021/07/01 11:13:28;;;;;;;9.95;6.72;;;;;;;;;;6215217;23;20005;-48
2021/07/01 11:16:03;;;;;;;9.45;6.68;;;;;;;;;;6214948;23;20001;-48
2021/07/01 11:18:34;;;;;;;7.05;6.28;;;;;;;;;;6213983;23;20000;-48
2021/07/01 11:21:09;;;;;;;9.65;6.80;;;;;;;;;;6214755;23;20084;-49
2021/07/01 11:23:36;;;;;;;7.72;6.80;;;;;;;;;;6213631;23;20009;-49
2021/07/01 11:26:02;;;;;;;9.70;7.13;;;;;;;;;;6213597;23;20001;-50
2021/07/01 11:28:31;;;;;;;9.35;6.95;;;;;;;;;;6213469;23;20004;-49
2021/07/01 11:31:00;;;;;;;9.02;7.53;;;;;;;;;;6214707;23;20000;-50
2021/07/01 11:33:27;;;;;;;9.52;7.97;;;;;;;;;;6215064;23;20294;-49
2021/07/01 11:36:09;;;;;;;8.80;6.93;;;;;;;;;;6214050;23;20001;-50
2021/07/01 11:38:35;;;;;;;11.68;8.43;;;;;;;;;;6213624;23;20058;-51
2021/07/01 11:41:04;;;;;;;8.73;7.30;;;;;;;;;;6213961;23;20059;-51
2021/07/01 11:43:30;;;;;;;14.18;7.50;;;;;;;;;;6215730;23;20004;-50
2021/07/01 11:45:57;;;;;;;10.00;7.55;;;;;;;;;;6215081;23;20078;-49
2021/07/01 11:48:24;;;;;;;12.15;7.03;;;;;;;;;;6213989;23;20020;-49
2021/07/01 11:50:52;;;;;;;7.45;5.93;;;;;;;;;;6214328;23;20011;-48
2021/07/01 11:53:19;;;;;;;9.55;6.70;;;;;;;;;;6215351;23;20020;-48
2021/07/01 11:55:46;;;;;;;8.32;6.63;;;;;;;;;;6215134;23;20480;-49
2021/07/01 11:58:12;;;;;;;7.68;5.72;;;;;;;;;;6215071;23;20321;-49
2021/07/01 12:00:38;;;;;;;10.90;6.78;;;;;;;;;;6215169;23;20008;-48
2021/07/01 12:03:05;;;;;;;10.52;6.85;;;;;;;;;;6213754;23;20325;-50
2021/07/01 12:05:32;;;;;;;9.95;6.63;;;;;;;;;;6215054;23;20004;-50
2021/07/01 12:07:58;;;;;;;8.50;6.63;;;;;;;;;;6214082;23;20008;-50
2021/07/01 12:10:25;;;;;;;8.88;6.28;;;;;;;;;;6214015;23;20080;-49
2021/07/01 12:12:51;;;;;;;8.00;5.75;;;;;;;;;;6214686;23;20005;-48
2021/07/01 12:15:18;;;;;;;9.07;5.75;;;;;;;;;;6215218;23;20362;-50
2021/07/01 12:17:51;;;;;;;7.03;5.40;;;;;;;;;;6214586;23;20502;-49
2021/07/01 12:20:17;;;;;;;;;;;;;;;;;;6215795;23;20023;-48
2021/07/01 12:22:48;;;;;;;6.70;5.15;;;;;;;;;;6214398;23;20309;-49
2021/07/01 12:25:26;;;;;;;7.88;5.10;;;;;;;;;;6214971;23;20046;-48
2021/07/01 12:28:23;;;;;;;7.13;5.47;;;;;;;;;;6214731;23;20075;-54
2021/07/01 12:31:06;;;;;;;7.32;5.20;;;;;;;;;;6185552;23;20001;-49
2021/07/01 12:33:38;;;;;;;8.85;5.65;;;;;;;;;;6214897;23;20425;-48
2021/07/01 12:36:05;;;;;;;8.98;6.05;;;;;;;;;;6214384;23;20011;-51
2021/07/01 12:38:31;;;;;;;8.20;6.88;;;;;;;;;;6214423;23;20065;-50
2021/07/01 12:40:58;;;;;;;10.88;7.20;;;;;;;;;;6214900;23;20001;-49
2021/07/01 12:43:43;;;;;;;8.48;6.60;;;;;;;;;;6188188;23;20079;-48
2021/07/01 12:46:10;;;;;;;8.68;6.40;;;;;;;;;;6215380;23;20026;-48
2021/07/01 12:48:39;;;;;;;11.82;8.18;;;;;;;;;;6182317;23;20016;-49
2021/07/01 12:51:24;;;;;;;9.82;7.10;;;;;;;;;;6184181;23;20051;-50
2021/07/01 12:53:50;;;;;;;9.63;7.78;;;;;;;;;;6184410;23;20028;-49
2021/07/01 12:56:38;;;;;;;8.60;7.15;;;;;;;;;;6184982;23;20060;-49
2021/07/01 12:59:04;;;;;;;7.57;6.78;;;;;;;;;;6184191;23;20449;-49
2021/07/01 13:01:30;;;;;;;12.43;7.70;;;;;;;;;;6184878;23;20055;-50
2021/07/01 13:03:57;;;;;;;7.75;6.95;;;;;;;;;;6184878;23;20039;-49
2021/07/01 13:06:24;;;;;;;8.48;7.00;;;;;;;;;;6184694;23;20085;-49
2021/07/01 13:08:50;;;;;;;8.75;7.53;;;;;;;;;;6184102;23;20083;-48
2021/07/01 13:11:16;;;;;;;8.25;7.25;;;;;;;;;;6184386;23;20042;-48
2021/07/01 13:13:42;;;;;;;10.80;7.32;;;;;;;;;;6184956;23;20029;-48
2021/07/01 13:16:08;;;;;;;11.63;7.65;;;;;;;;;;6184702;23;20460;-48
2021/07/01 13:18:34;;;;;;;7.88;6.97;;;;;;;;;;6183696;23;20394;-50
2021/07/01 13:21:10;;;;;;;9.18;6.88;;;;;;;;;;6183659;23;20350;-49
2021/07/01 13:23:36;;;;;;;9.63;7.47;;;;;;;;;;6182262;23;20013;-49
2021/07/01 13:26:14;;;;;;;8.05;7.10;;;;;;;;;;6184266;23;20551;-49
2021/07/01 13:28:40;;;;;;;7.35;6.60;;;;;;;;;;6184190;23;20024;-49
2021/07/01 13:31:06;;;;;;;9.20;6.85;;;;;;;;;;6182175;23;20016;-51
2021/07/01 13:33:32;;;;;;;8.70;7.20;;;;;;;;;;6184738;23;20016;-50
2021/07/01 13:35:59;;;;;;;8.65;7.75;;;;;;;;;;6184462;23;20468;-49
2021/07/01 13:38:25;;;;;;;9.25;7.78;;;;;;;;;;6183783;23;20028;-49
2021/07/01 13:40:53;;;;;;;9.13;7.95;;;;;;;;;;6184310;23;20135;-49
2021/07/01 13:43:20;;;;;;;8.70;6.80;;;;;;;;;;6182308;23;20001;-48
2021/07/01 13:45:47;;;;;;;8.02;7.05;;;;;;;;;;6184192;23;20126;-49
2021/07/01 13:48:16;;;;;;;9.73;6.70;;;;;;;;;;6186199;23;20009;-49
2021/07/01 13:50:43;;;;;;;7.25;6.55;;;;;;;;;;6213413;23;20005;-49
2021/07/01 13:53:11;;;;;;;8.65;6.97;;;;;;;;;;6213905;23;20000;-51
2021/07/01 13:55:56;;;;;;;8.70;7.35;;;;;;;;;;6212611;23;20000;-49
2021/07/01 13:58:23;;;;;;;8.02;7.22;;;;;;;;;;6213693;23;20001;-49
2021/07/01 14:00:52;;;;;;;7.95;7.15;;;;;;;;;;6213006;23;20032;-49
2021/07/01 14:03:23;;;;;;;8.73;7.82;;;;;;;;;;6211921;23;20000;-49
2021/07/01 14:05:50;;;;;;;7.35;6.50;;;;;;;;;;6213367;23;20083;-49
2021/07/01 14:08:23;;;;;;;7.78;6.20;;;;;;;;;;6212690;23;20004;-49
2021/07/01 14:10:55;;;;;;;7.35;6.40;;;;;;;;;;6213410;23;20032;-51
2021/07/01 14:13:21;;;;;;;7.30;6.40;;;;;;;;;;6213739;23;20007;-49
2021/07/01 14:15:47;;;;;;;8.35;6.25;;;;;;;;;;6213683;23;20008;-50
2021/07/01 14:18:13;;;;;;;7.45;6.40;;;;;;;;;;6213468;23;20005;-49
2021/07/01 14:20:40;;;;;;;9.35;6.75;;;;;;;;;;6213679;23;20309;-50
2021/07/01 14:23:22;;;;;;;10.32;6.80;;;;;;;;;;6214277;23;20586;-49
2021/07/01 14:25:48;;;;;;;12.07;5.68;;;;;;;;;;6214359;23;20039;-51
2021/07/01 14:28:15;;;;;;;7.78;5.70;;;;;;;;;;6213940;23;20051;-48
2021/07/01 14:30:46;;;;;;;5.28;4.47;;;;;;;;;;6213216;23;20009;-50
2021/07/01 14:33:28;;;;;;;6.38;4.55;;;;;;;;;;6213157;23;20000;-49
2021/07/01 14:35:59;;;;;;;5.20;4.70;;;;;;;;;;6213812;23;20043;-50
2021/07/01 14:38:29;;;;;;;5.25;4.68;;;;;;;;;;6213464;23;20361;-48
2021/07/01 14:40:59;;;;;;;6.00;4.70;;;;;;;;;;6213756;23;20008;-48